Time;durP1;ratioP1;P1;durP2;ratioP2;P2;SDS_P1;SDS_P2;PMS_P1;PMS_P2;Temp;Humidity;BMP_temperature;BMP_pressure;BME280_temperature;BME280_humidity;BME280_pressure;Samples;Min_cycle;Max_cycle;Signal;HPM_P1;HPM_P2
2024/03/13 00:01:52;;;;;;;17.52;8.00;;;;;;;;;;5072908;28;20408;-79
2024/03/13 00:04:18;;;;;;;19.05;8.88;;;;;;;;;;5092024;27;20106;-80
2024/03/13 00:06:44;;;;;;;20.88;8.82;;;;;;;;;;5082791;27;20120;-79
2024/03/13 00:09:10;;;;;;;21.80;8.48;;;;;;;;;;5079892;28;20035;-78
2024/03/13 00:11:36;;;;;;;17.50;8.27;;;;;;;;;;5074551;28;20047;-79
2024/03/13 00:14:02;;;;;;;20.63;8.98;;;;;;;;;;5078315;28;20073;-78
2024/03/13 00:16:31;;;;;;;18.50;8.40;;;;;;;;;;5086266;28;20131;-79
2024/03/13 00:18:56;;;;;;;17.92;8.13;;;;;;;;;;5087602;27;20024;-80
2024/03/13 00:21:22;;;;;;;19.33;8.48;;;;;;;;;;5074504;28;20043;-80
2024/03/13 00:23:47;;;;;;;16.65;8.55;;;;;;;;;;5084364;28;20102;-78
2024/03/13 00:26:13;;;;;;;17.98;8.50;;;;;;;;;;5077223;28;20060;-78
2024/03/13 00:28:39;;;;;;;19.67;9.05;;;;;;;;;;5079551;28;20047;-79
2024/03/13 00:31:08;;;;;;;15.80;7.15;;;;;;;;;;5094894;28;20035;-80
2024/03/13 00:33:34;;;;;;;18.45;7.75;;;;;;;;;;5101255;27;20038;-80
2024/03/13 00:35:59;;;;;;;13.25;5.30;;;;;;;;;;5095040;28;20035;-80
2024/03/13 00:38:25;;;;;;;8.30;3.58;;;;;;;;;;5085163;28;20036;-79
2024/03/13 00:40:51;;;;;;;12.75;4.95;;;;;;;;;;5090309;27;20063;-78
2024/03/13 00:43:18;;;;;;;12.05;5.72;;;;;;;;;;5101173;28;20063;-79
2024/03/13 00:45:43;;;;;;;25.42;10.05;;;;;;;;;;5085314;28;20093;-79
2024/03/13 00:48:09;;;;;;;17.45;7.80;;;;;;;;;;5076918;28;20035;-81
2024/03/13 00:50:37;;;;;;;14.02;6.57;;;;;;;;;;5099449;27;20157;-78
2024/03/13 00:53:03;;;;;;;26.85;10.48;;;;;;;;;;5103042;28;20059;-81
2024/03/13 00:55:28;;;;;;;17.08;7.20;;;;;;;;;;5103458;27;20069;-79
2024/03/13 00:57:53;;;;;;;24.13;9.07;;;;;;;;;;5073089;28;20039;-79
2024/03/13 01:00:21;;;;;;;22.77;9.32;;;;;;;;;;5082792;28;20032;-79
2024/03/13 01:02:47;;;;;;;20.13;8.98;;;;;;;;;;5088488;28;20031;-79
2024/03/13 01:05:16;;;;;;;25.27;9.38;;;;;;;;;;5100099;27;20073;-78
2024/03/13 01:07:44;;;;;;;14.13;6.78;;;;;;;;;;5099851;27;20381;-79
2024/03/13 01:10:09;;;;;;;22.73;8.60;;;;;;;;;;5084305;28;20067;-79
2024/03/13 01:12:35;;;;;;;23.85;9.70;;;;;;;;;;5100705;27;20570;-80
2024/03/13 01:15:00;;;;;;;18.95;7.22;;;;;;;;;;5071477;27;20036;-80
2024/03/13 01:17:26;;;;;;;10.40;4.03;;;;;;;;;;5099998;27;20153;-79
2024/03/13 01:19:52;;;;;;;13.15;5.82;;;;;;;;;;5109214;27;20126;-80
2024/03/13 01:22:19;;;;;;;23.17;10.30;;;;;;;;;;5077203;28;20168;-81
2024/03/13 01:24:46;;;;;;;31.20;10.13;;;;;;;;;;5102754;27;20036;-80
2024/03/13 01:27:11;;;;;;;28.80;10.32;;;;;;;;;;5101167;28;20347;-80
2024/03/13 01:29:38;;;;;;;16.60;7.50;;;;;;;;;;5099135;27;20512;-78
2024/03/13 01:32:04;;;;;;;27.10;10.98;;;;;;;;;;5088836;27;20072;-80
2024/03/13 01:34:30;;;;;;;15.13;5.65;;;;;;;;;;5087020;28;20042;-80
2024/03/13 01:39:40;;;;;;;21.60;9.02;;;;;;;;;;5094887;27;20069;-79
2024/03/13 01:56:32;;;;;;;12.00;5.38;;;;;;;;;;5089857;27;20088;-79
2024/03/13 01:59:09;;;;;;;23.75;9.13;;;;;;;;;;5106890;28;20027;-80
2024/03/13 02:04:20;;;;;;;29.05;12.02;;;;;;;;;;5095872;27;20038;-81
2024/03/13 02:06:46;;;;;;;31.65;12.57;;;;;;;;;;5098415;28;20099;-81
2024/03/13 02:09:12;;;;;;;24.88;9.73;;;;;;;;;;5101436;27;20038;-81
2024/03/13 02:11:37;;;;;;;30.67;11.85;;;;;;;;;;5072042;28;20052;-81
2024/03/13 02:14:04;;;;;;;31.15;13.20;;;;;;;;;;5098869;27;20051;-80
2024/03/13 02:16:30;;;;;;;31.98;13.05;;;;;;;;;;5107486;28;20038;-81
2024/03/13 02:18:58;;;;;;;31.38;14.13;;;;;;;;;;5084817;28;20036;-80
2024/03/13 02:21:24;;;;;;;33.55;12.93;;;;;;;;;;5076985;28;20032;-81
2024/03/13 02:23:49;;;;;;;32.63;12.43;;;;;;;;;;5098887;27;20035;-80
2024/03/13 02:26:14;;;;;;;25.60;10.32;;;;;;;;;;5106631;27;20059;-80
2024/03/13 02:28:41;;;;;;;20.80;9.50;;;;;;;;;;5105421;27;20039;-80
2024/03/13 02:31:06;;;;;;;21.80;9.80;;;;;;;;;;5095222;28;20048;-80
2024/03/13 02:33:32;;;;;;;22.58;10.00;;;;;;;;;;5088561;28;20704;-80
2024/03/13 02:35:58;;;;;;;24.73;10.80;;;;;;;;;;5097999;28;20030;-81
2024/03/13 02:38:23;;;;;;;25.08;10.00;;;;;;;;;;5078170;27;20032;-80
2024/03/13 02:40:49;;;;;;;22.65;8.85;;;;;;;;;;5104301;27;20043;-81
2024/03/13 02:43:14;;;;;;;18.33;7.22;;;;;;;;;;5107940;28;20035;-80
2024/03/13 02:45:43;;;;;;;35.75;14.20;;;;;;;;;;5107611;27;20106;-81
2024/03/13 02:48:10;;;;;;;29.67;11.95;;;;;;;;;;5106709;27;20053;-81
2024/03/13 02:50:36;;;;;;;31.10;12.88;;;;;;;;;;5089579;28;20039;-80
2024/03/13 02:53:01;;;;;;;28.35;10.45;;;;;;;;;;5087335;28;20123;-80
2024/03/13 02:55:26;;;;;;;34.42;13.73;;;;;;;;;;5094914;27;20136;-80
2024/03/13 02:57:52;;;;;;;18.33;8.90;;;;;;;;;;5090714;28;20035;-81
2024/03/13 03:00:17;;;;;;;32.55;13.07;;;;;;;;;;5105537;28;20028;-81
2024/03/13 03:02:43;;;;;;;30.33;11.63;;;;;;;;;;5107027;27;20079;-80
2024/03/13 03:05:09;;;;;;;31.55;11.82;;;;;;;;;;5107384;28;20032;-80
2024/03/13 03:07:34;;;;;;;31.92;13.13;;;;;;;;;;5093186;28;20036;-81
2024/03/13 03:10:00;;;;;;;25.10;10.32;;;;;;;;;;5088465;28;20066;-80
2024/03/13 03:12:27;;;;;;;26.02;10.13;;;;;;;;;;5077561;27;20024;-80
2024/03/13 03:14:55;;;;;;;27.42;11.52;;;;;;;;;;5103422;27;20128;-79
2024/03/13 03:17:21;;;;;;;28.73;12.20;;;;;;;;;;5090320;28;20035;-80
2024/03/13 03:19:49;;;;;;;22.13;8.43;;;;;;;;;;5091450;28;20319;-80
2024/03/13 03:22:15;;;;;;;29.15;12.07;;;;;;;;;;5107024;27;20035;-80
2024/03/13 03:24:40;;;;;;;15.43;7.03;;;;;;;;;;5084920;28;20032;-80
2024/03/13 03:27:06;;;;;;;24.00;10.52;;;;;;;;;;5068042;28;20051;-79
2024/03/13 03:29:32;;;;;;;30.65;12.00;;;;;;;;;;5066357;28;20041;-78
2024/03/13 03:31:57;;;;;;;11.30;5.28;;;;;;;;;;5071815;28;20036;-78
2024/03/13 03:34:23;;;;;;;32.65;11.85;;;;;;;;;;5091781;28;20059;-79
2024/03/13 03:36:48;;;;;;;30.27;12.00;;;;;;;;;;5087207;28;20547;-78
2024/03/13 03:39:17;;;;;;;14.82;7.15;;;;;;;;;;5074763;28;20044;-78
2024/03/13 03:41:43;;;;;;;28.02;10.32;;;;;;;;;;5086932;28;20035;-78
2024/03/13 03:44:11;;;;;;;20.80;7.72;;;;;;;;;;5071766;28;20040;-78
2024/03/13 03:46:40;;;;;;;30.23;11.60;;;;;;;;;;5092905;28;20040;-78
2024/03/13 03:49:08;;;;;;;20.13;8.32;;;;;;;;;;5078523;27;20047;-78
2024/03/13 03:51:34;;;;;;;32.15;11.80;;;;;;;;;;5072227;28;20042;-77
2024/03/13 03:54:00;;;;;;;34.88;11.93;;;;;;;;;;5078863;28;20388;-78
2024/03/13 03:56:27;;;;;;;28.98;11.52;;;;;;;;;;5100108;27;20105;-78
2024/03/13 03:58:54;;;;;;;19.92;8.43;;;;;;;;;;5075423;28;20032;-80
2024/03/13 04:01:20;;;;;;;29.48;10.38;;;;;;;;;;5063530;28;20040;-78
2024/03/13 04:03:47;;;;;;;9.80;4.50;;;;;;;;;;5077015;28;20121;-78
2024/03/13 04:06:16;;;;;;;15.70;6.53;;;;;;;;;;5091862;27;20071;-78
2024/03/13 04:08:46;;;;;;;27.02;9.63;;;;;;;;;;5086826;28;20032;-78
2024/03/13 04:11:11;;;;;;;15.45;6.32;;;;;;;;;;5081661;27;20040;-79
2024/03/13 04:13:38;;;;;;;18.02;7.05;;;;;;;;;;5074312;28;20119;-79
2024/03/13 04:16:04;;;;;;;27.65;11.02;;;;;;;;;;5069560;28;20105;-79
2024/03/13 04:18:34;;;;;;;25.42;10.35;;;;;;;;;;5076174;27;20043;-78
2024/03/13 04:21:00;;;;;;;21.02;8.43;;;;;;;;;;5093050;27;20035;-78
2024/03/13 04:23:26;;;;;;;21.13;8.93;;;;;;;;;;5093517;27;20638;-78
2024/03/13 04:25:52;;;;;;;23.20;8.80;;;;;;;;;;5094145;28;20130;-78
2024/03/13 04:28:18;;;;;;;34.75;10.10;;;;;;;;;;5093834;28;20127;-77
2024/03/13 04:30:43;;;;;;;24.08;8.52;;;;;;;;;;5093703;27;20128;-78
2024/03/13 04:33:09;;;;;;;32.13;11.55;;;;;;;;;;5064777;28;20047;-78
2024/03/13 04:35:34;;;;;;;26.33;11.55;;;;;;;;;;5058299;28;21523;-78
2024/03/13 04:38:00;;;;;;;30.52;10.38;;;;;;;;;;5078722;27;20038;-78
2024/03/13 04:40:25;;;;;;;22.23;8.52;;;;;;;;;;5065572;28;20039;-78
2024/03/13 04:42:51;;;;;;;21.92;8.93;;;;;;;;;;5092874;28;20104;-78
2024/03/13 04:45:16;;;;;;;25.60;11.45;;;;;;;;;;5094086;27;20043;-79
2024/03/13 04:47:42;;;;;;;24.85;10.50;;;;;;;;;;5076367;28;20099;-78
2024/03/13 04:50:08;;;;;;;30.73;11.10;;;;;;;;;;5081393;27;20050;-79
2024/03/13 04:52:36;;;;;;;30.40;11.68;;;;;;;;;;5099468;27;20441;-79
2024/03/13 04:55:02;;;;;;;25.17;10.52;;;;;;;;;;5085959;28;20050;-79
2024/03/13 04:57:28;;;;;;;16.33;7.45;;;;;;;;;;5086820;28;20036;-79
2024/03/13 04:59:54;;;;;;;27.70;11.00;;;;;;;;;;5091013;28;20028;-79
2024/03/13 05:02:19;;;;;;;28.13;10.50;;;;;;;;;;5092782;28;20112;-79
2024/03/13 05:04:44;;;;;;;27.25;11.00;;;;;;;;;;5093561;28;20042;-79
2024/03/13 05:07:12;;;;;;;29.35;11.60;;;;;;;;;;5066326;28;21669;-78
2024/03/13 05:09:40;;;;;;;24.83;9.50;;;;;;;;;;5087653;27;20107;-78
2024/03/13 05:12:06;;;;;;;29.35;12.35;;;;;;;;;;5084307;28;20130;-78
2024/03/13 05:14:32;;;;;;;19.70;8.90;;;;;;;;;;5090744;27;20132;-78
2024/03/13 05:16:57;;;;;;;32.88;12.35;;;;;;;;;;5083533;28;20101;-78
2024/03/13 05:19:22;;;;;;;35.40;12.50;;;;;;;;;;5097513;27;20081;-78
2024/03/13 05:21:48;;;;;;;27.77;10.95;;;;;;;;;;5079799;28;20043;-78
2024/03/13 05:24:14;;;;;;;32.10;12.45;;;;;;;;;;5090216;27;20539;-78
2024/03/13 05:26:41;;;;;;;30.10;11.77;;;;;;;;;;5096028;27;20041;-78
2024/03/13 05:29:08;;;;;;;30.10;11.32;;;;;;;;;;5073267;27;20043;-78
2024/03/13 05:31:34;;;;;;;21.48;9.18;;;;;;;;;;5091913;27;20540;-78
2024/03/13 05:34:00;;;;;;;29.10;10.82;;;;;;;;;;5074112;28;20047;-78
2024/03/13 05:36:25;;;;;;;17.20;6.95;;;;;;;;;;5090791;27;20036;-77
2024/03/13 05:38:51;;;;;;;30.15;12.25;;;;;;;;;;5089371;28;20061;-76
2024/03/13 05:41:16;;;;;;;33.42;11.63;;;;;;;;;;5084676;27;20058;-77
2024/03/13 05:43:42;;;;;;;36.78;13.23;;;;;;;;;;5090998;27;20557;-77
2024/03/13 05:46:07;;;;;;;26.73;10.70;;;;;;;;;;5090936;28;20393;-77
2024/03/13 05:48:32;;;;;;;28.10;10.60;;;;;;;;;;5093963;27;20425;-77
2024/03/13 05:50:58;;;;;;;31.80;12.57;;;;;;;;;;5094193;28;20035;-77
2024/03/13 05:53:23;;;;;;;25.98;10.40;;;;;;;;;;5098786;27;20464;-77
2024/03/13 05:55:49;;;;;;;26.15;10.38;;;;;;;;;;5086627;28;20024;-77
2024/03/13 05:58:14;;;;;;;13.32;5.15;;;;;;;;;;5088358;27;20035;-77
2024/03/13 06:00:43;;;;;;;21.80;9.43;;;;;;;;;;5082323;27;20553;-80
2024/03/13 06:03:08;;;;;;;23.58;10.18;;;;;;;;;;5093005;28;20094;-79
2024/03/13 06:05:33;;;;;;;25.23;9.60;;;;;;;;;;5096051;27;20032;-79
2024/03/13 06:07:59;;;;;;;24.58;10.23;;;;;;;;;;5063252;28;20032;-79
2024/03/13 06:10:27;;;;;;;27.67;9.43;;;;;;;;;;5080128;28;20042;-79
2024/03/13 06:12:52;;;;;;;26.05;10.48;;;;;;;;;;5064206;28;20028;-78
2024/03/13 06:15:18;;;;;;;28.90;11.32;;;;;;;;;;5089042;28;20042;-78
2024/03/13 06:17:45;;;;;;;25.73;10.27;;;;;;;;;;5089303;28;20068;-78
2024/03/13 06:20:13;;;;;;;22.85;9.85;;;;;;;;;;5079546;27;20133;-78
2024/03/13 06:22:42;;;;;;;27.40;10.52;;;;;;;;;;5093628;28;20027;-78
2024/03/13 06:25:08;;;;;;;26.33;10.70;;;;;;;;;;5098820;27;20039;-78
2024/03/13 06:27:34;;;;;;;23.77;10.45;;;;;;;;;;5080815;28;20073;-77
2024/03/13 06:30:03;;;;;;;27.73;10.05;;;;;;;;;;5074638;28;20075;-78
2024/03/13 06:32:28;;;;;;;13.57;6.20;;;;;;;;;;5060342;28;20585;-80
2024/03/13 06:35:06;;;;;;;29.55;10.52;;;;;;;;;;5084168;28;20028;-78
2024/03/13 06:37:33;;;;;;;26.30;11.05;;;;;;;;;;5048586;28;20037;-78
2024/03/13 06:39:58;;;;;;;27.67;11.45;;;;;;;;;;5083219;27;20913;-78
2024/03/13 06:42:25;;;;;;;27.20;10.48;;;;;;;;;;5088732;27;20129;-78
2024/03/13 06:44:51;;;;;;;27.83;11.38;;;;;;;;;;5072014;28;20050;-78
2024/03/13 06:47:16;;;;;;;26.67;10.77;;;;;;;;;;5078206;27;20051;-78
2024/03/13 06:49:43;;;;;;;26.95;11.73;;;;;;;;;;5091626;27;20039;-78
2024/03/13 06:52:12;;;;;;;27.88;10.52;;;;;;;;;;5086681;27;20382;-78
2024/03/13 06:54:41;;;;;;;26.63;10.63;;;;;;;;;;5084575;27;20032;-78
2024/03/13 06:57:09;;;;;;;26.83;11.20;;;;;;;;;;5084726;27;20035;-78
2024/03/13 06:59:35;;;;;;;25.25;9.88;;;;;;;;;;5090703;28;20067;-78
2024/03/13 07:02:01;;;;;;;23.38;9.50;;;;;;;;;;5089293;28;20120;-78
2024/03/13 07:04:27;;;;;;;30.75;11.32;;;;;;;;;;5076923;28;20055;-78
2024/03/13 07:06:57;;;;;;;26.20;11.15;;;;;;;;;;5074977;28;20039;-77
2024/03/13 07:09:24;;;;;;;27.73;12.00;;;;;;;;;;5089734;27;20035;-78
2024/03/13 07:11:51;;;;;;;25.88;11.35;;;;;;;;;;5091059;27;20039;-78
2024/03/13 07:14:17;;;;;;;23.98;11.35;;;;;;;;;;5089044;28;20092;-78
2024/03/13 07:16:43;;;;;;;26.38;11.18;;;;;;;;;;5085196;28;20035;-78
2024/03/13 07:19:09;;;;;;;22.77;10.45;;;;;;;;;;5074995;27;20055;-77
2024/03/13 07:21:35;;;;;;;23.45;11.00;;;;;;;;;;5086912;27;20048;-78
2024/03/13 07:24:01;;;;;;;25.20;10.90;;;;;;;;;;5090013;28;20051;-78
2024/03/13 07:26:26;;;;;;;23.80;9.93;;;;;;;;;;5088142;27;20483;-78
2024/03/13 07:28:53;;;;;;;22.10;9.70;;;;;;;;;;5090148;27;20046;-78
2024/03/13 07:31:20;;;;;;;19.38;8.93;;;;;;;;;;5088439;27;20035;-78
2024/03/13 07:33:46;;;;;;;9.63;5.65;;;;;;;;;;5070163;28;20029;-78
2024/03/13 07:36:11;;;;;;;23.38;8.90;;;;;;;;;;5068306;28;20421;-78
2024/03/13 07:38:37;;;;;;;26.58;12.65;;;;;;;;;;5086021;28;20036;-77
2024/03/13 07:41:09;;;;;;;21.52;9.57;;;;;;;;;;5071037;28;20036;-78
2024/03/13 07:43:35;;;;;;;20.13;9.75;;;;;;;;;;5074037;28;20040;-78
2024/03/13 07:46:00;;;;;;;20.98;9.98;;;;;;;;;;5087949;28;20598;-79
2024/03/13 07:48:26;;;;;;;19.80;9.35;;;;;;;;;;5078487;28;20542;-79
2024/03/13 07:50:52;;;;;;;15.82;5.65;;;;;;;;;;5087765;28;20040;-78
2024/03/13 07:53:20;;;;;;;12.15;5.15;;;;;;;;;;5059017;28;20043;-80
2024/03/13 07:55:46;;;;;;;6.68;3.95;;;;;;;;;;5086069;28;20121;-78
2024/03/13 07:58:12;;;;;;;7.38;3.83;;;;;;;;;;5068112;28;20547;-79
2024/03/13 08:00:37;;;;;;;8.88;4.18;;;;;;;;;;5070558;28;20047;-79
2024/03/13 08:03:02;;;;;;;9.82;4.00;;;;;;;;;;5081991;28;20098;-79
2024/03/13 08:05:28;;;;;;;8.85;4.63;;;;;;;;;;5089282;28;20044;-79
2024/03/13 08:07:53;;;;;;;7.50;3.42;;;;;;;;;;5076931;27;20105;-79
2024/03/13 08:10:21;;;;;;;6.30;2.97;;;;;;;;;;5075173;27;20145;-79
2024/03/13 08:12:46;;;;;;;7.20;3.60;;;;;;;;;;5084366;27;20038;-78
2024/03/13 08:15:12;;;;;;;8.82;3.80;;;;;;;;;;5084118;28;20039;-79
2024/03/13 08:17:38;;;;;;;8.32;3.17;;;;;;;;;;5089618;28;20032;-78
2024/03/13 08:20:05;;;;;;;5.88;3.38;;;;;;;;;;5089063;27;20538;-79
2024/03/13 08:22:30;;;;;;;8.13;3.40;;;;;;;;;;5087832;27;20032;-78
2024/03/13 08:24:58;;;;;;;10.75;4.40;;;;;;;;;;5086856;28;20125;-79
2024/03/13 08:27:23;;;;;;;8.63;3.58;;;;;;;;;;5076910;27;20033;-79
2024/03/13 08:29:48;;;;;;;4.65;2.47;;;;;;;;;;5084027;28;20028;-78
2024/03/13 08:32:14;;;;;;;10.40;4.43;;;;;;;;;;5077035;28;20043;-78
2024/03/13 08:34:39;;;;;;;5.50;2.83;;;;;;;;;;5093300;28;20039;-79
2024/03/13 08:37:05;;;;;;;10.90;3.40;;;;;;;;;;5078737;28;20039;-78
2024/03/13 08:39:30;;;;;;;5.63;2.92;;;;;;;;;;5076792;28;20602;-78
2024/03/13 08:41:57;;;;;;;10.23;4.03;;;;;;;;;;5071920;28;20040;-79
2024/03/13 08:44:23;;;;;;;6.38;3.38;;;;;;;;;;5058350;27;20729;-79
2024/03/13 08:46:48;;;;;;;4.38;2.60;;;;;;;;;;5085716;27;20039;-79
2024/03/13 08:49:17;;;;;;;5.07;2.70;;;;;;;;;;5081971;27;20036;-79
2024/03/13 08:51:42;;;;;;;6.00;3.35;;;;;;;;;;5082039;27;20062;-79
2024/03/13 08:54:11;;;;;;;9.43;3.47;;;;;;;;;;5071057;28;20552;-79
2024/03/13 08:56:39;;;;;;;7.03;2.85;;;;;;;;;;5091695;27;20028;-79
2024/03/13 08:59:05;;;;;;;7.90;3.55;;;;;;;;;;5063469;27;20043;-77
2024/03/13 09:01:42;;;;;;;6.15;3.25;;;;;;;;;;5092343;27;20108;-79
2024/03/13 09:04:09;;;;;;;5.70;3.13;;;;;;;;;;5082875;28;20075;-78
2024/03/13 09:06:36;;;;;;;8.63;3.65;;;;;;;;;;5082018;27;20059;-77
2024/03/13 09:09:05;;;;;;;6.70;3.30;;;;;;;;;;5095164;27;20068;-77
2024/03/13 09:11:31;;;;;;;6.05;2.42;;;;;;;;;;5072715;28;20084;-78
2024/03/13 09:14:03;;;;;;;8.40;4.03;;;;;;;;;;5085164;27;20039;-77
2024/03/13 09:16:29;;;;;;;8.43;4.35;;;;;;;;;;5072829;28;20109;-77
2024/03/13 09:18:54;;;;;;;8.52;3.67;;;;;;;;;;5076140;27;20512;-77
2024/03/13 09:21:20;;;;;;;8.73;3.95;;;;;;;;;;5083518;28;20598;-78
2024/03/13 09:23:45;;;;;;;7.20;3.75;;;;;;;;;;5072215;28;20093;-78
2024/03/13 09:26:12;;;;;;;9.65;3.67;;;;;;;;;;5077363;28;20043;-78
2024/03/13 09:28:37;;;;;;;6.78;3.03;;;;;;;;;;5073112;27;20121;-78
2024/03/13 09:31:03;;;;;;;6.90;2.95;;;;;;;;;;5071213;28;20504;-78
2024/03/13 09:33:29;;;;;;;6.65;3.08;;;;;;;;;;5071576;27;20115;-78
2024/03/13 09:35:54;;;;;;;6.70;3.05;;;;;;;;;;5074493;27;20114;-78
2024/03/13 09:38:21;;;;;;;5.35;2.72;;;;;;;;;;5078419;28;20028;-77
2024/03/13 09:40:48;;;;;;;8.95;3.05;;;;;;;;;;5071191;28;20119;-78
2024/03/13 09:43:15;;;;;;;6.40;3.47;;;;;;;;;;5079529;27;20028;-78
2024/03/13 09:45:43;;;;;;;4.30;2.25;;;;;;;;;;5087990;27;20035;-77
2024/03/13 09:48:12;;;;;;;4.35;2.20;;;;;;;;;;5061487;28;20040;-77
2024/03/13 09:50:40;;;;;;;7.25;2.58;;;;;;;;;;5071264;28;20531;-78
2024/03/13 09:53:07;;;;;;;5.47;2.40;;;;;;;;;;5053988;28;20054;-78
2024/03/13 09:55:32;;;;;;;4.35;1.98;;;;;;;;;;5071778;28;20450;-78
2024/03/13 09:57:58;;;;;;;3.65;2.00;;;;;;;;;;5073004;28;20036;-79
2024/03/13 10:00:23;;;;;;;3.50;1.85;;;;;;;;;;5083884;27;20031;-79
2024/03/13 10:02:51;;;;;;;1.23;1.10;;;;;;;;;;5085452;28;20047;-79
2024/03/13 10:05:19;;;;;;;6.30;2.58;;;;;;;;;;5062491;28;20127;-78
2024/03/13 10:07:49;;;;;;;4.65;2.20;;;;;;;;;;5066139;27;20468;-79
2024/03/13 10:10:24;;;;;;;3.47;1.73;;;;;;;;;;5070369;28;20035;-78
2024/03/13 10:12:50;;;;;;;3.03;1.75;;;;;;;;;;5082849;27;20028;-79
2024/03/13 10:15:17;;;;;;;3.00;1.60;;;;;;;;;;5073365;27;20031;-79
2024/03/13 10:17:52;;;;;;;3.15;1.63;;;;;;;;;;5073495;27;20051;-79
2024/03/13 10:20:17;;;;;;;2.28;1.30;;;;;;;;;;5063448;28;20029;-79
2024/03/13 10:22:48;;;;;;;2.88;1.70;;;;;;;;;;5070773;28;20066;-79
2024/03/13 10:25:19;;;;;;;4.15;2.20;;;;;;;;;;5072654;28;20068;-79
2024/03/13 10:27:44;;;;;;;3.08;1.58;;;;;;;;;;5080805;28;20051;-78
2024/03/13 10:30:14;;;;;;;3.15;1.60;;;;;;;;;;5088800;27;20067;-78
2024/03/13 10:32:40;;;;;;;2.47;1.55;;;;;;;;;;5057482;28;20048;-79
2024/03/13 10:35:10;;;;;;;4.07;2.10;;;;;;;;;;5064274;28;20044;-78
2024/03/13 10:37:36;;;;;;;4.22;1.70;;;;;;;;;;5082059;27;20039;-78
2024/03/13 10:40:04;;;;;;;2.03;1.20;;;;;;;;;;5087851;27;20031;-78
2024/03/13 10:42:31;;;;;;;2.83;1.65;;;;;;;;;;5086189;27;20030;-78
2024/03/13 10:44:58;;;;;;;4.25;2.10;;;;;;;;;;5087242;28;20399;-78
2024/03/13 10:47:26;;;;;;;3.22;1.85;;;;;;;;;;5085928;27;20092;-78
2024/03/13 10:49:54;;;;;;;4.05;1.95;;;;;;;;;;5073921;28;20063;-78
2024/03/13 10:52:19;;;;;;;2.88;1.45;;;;;;;;;;5047566;28;20051;-78
2024/03/13 10:54:45;;;;;;;2.63;1.70;;;;;;;;;;5074991;27;20036;-78
2024/03/13 10:57:20;;;;;;;3.47;2.40;;;;;;;;;;5088917;28;20090;-78
2024/03/13 10:59:49;;;;;;;1.35;1.13;;;;;;;;;;5064179;28;20043;-78
2024/03/13 11:02:15;;;;;;;2.45;1.48;;;;;;;;;;5088664;27;20054;-78
2024/03/13 11:04:42;;;;;;;3.90;1.35;;;;;;;;;;5093936;27;20052;-78
2024/03/13 11:07:16;;;;;;;1.83;1.52;;;;;;;;;;5077342;27;20481;-78
2024/03/13 11:09:42;;;;;;;3.25;1.98;;;;;;;;;;5079004;28;20035;-78
2024/03/13 11:12:20;;;;;;;5.03;1.20;;;;;;;;;;5091342;28;20124;-79
2024/03/13 11:14:52;;;;;;;2.22;1.40;;;;;;;;;;5094952;27;20031;-78
2024/03/13 11:17:22;;;;;;;2.63;1.63;;;;;;;;;;5088408;27;20099;-79
2024/03/13 11:20:01;;;;;;;2.90;1.85;;;;;;;;;;5077183;27;20031;-78
2024/03/13 11:22:30;;;;;;;6.95;4.63;;;;;;;;;;5091901;27;20036;-79
2024/03/13 11:24:56;;;;;;;5.15;3.42;;;;;;;;;;5090953;28;20040;-79
2024/03/13 11:27:26;;;;;;;2.58;1.40;;;;;;;;;;5088642;27;20093;-78
2024/03/13 11:29:54;;;;;;;3.58;1.90;;;;;;;;;;5090912;27;20043;-78
2024/03/13 11:32:20;;;;;;;2.92;1.80;;;;;;;;;;5093511;27;20043;-79
2024/03/13 11:34:49;;;;;;;3.00;1.50;;;;;;;;;;5079310;27;20032;-79
2024/03/13 11:37:16;;;;;;;2.60;1.25;;;;;;;;;;5069679;28;20127;-79
2024/03/13 11:39:45;;;;;;;3.55;1.55;;;;;;;;;;5072948;28;20047;-79
2024/03/13 11:42:16;;;;;;;2.45;1.58;;;;;;;;;;5069687;28;20036;-78
2024/03/13 11:44:44;;;;;;;1.50;1.05;;;;;;;;;;5079635;28;20118;-79
2024/03/13 11:47:16;;;;;;;1.98;1.27;;;;;;;;;;5092251;27;20089;-79
2024/03/13 11:49:42;;;;;;;2.05;1.65;;;;;;;;;;5074265;27;20120;-78
2024/03/13 11:52:07;;;;;;;3.53;1.85;;;;;;;;;;5087647;28;20609;-79
2024/03/13 11:54:33;;;;;;;3.03;1.85;;;;;;;;;;5081773;28;20028;-79
2024/03/13 11:57:05;;;;;;;1.88;1.45;;;;;;;;;;5070569;28;20028;-79
2024/03/13 11:59:49;;;;;;;1.52;1.00;;;;;;;;;;5056853;28;20389;-79
2024/03/13 12:02:32;;;;;;;1.77;1.20;;;;;;;;;;5071164;28;20044;-78
2024/03/13 12:05:07;;;;;;;2.38;1.40;;;;;;;;;;5042999;27;20040;-78
2024/03/13 12:07:36;;;;;;;2.63;1.27;;;;;;;;;;5092622;27;20040;-79
2024/03/13 12:10:02;;;;;;;2.28;0.98;;;;;;;;;;5090765;27;20503;-78
2024/03/13 12:12:28;;;;;;;2.58;1.65;;;;;;;;;;5074905;28;20028;-78
2024/03/13 12:14:55;;;;;;;3.60;1.80;;;;;;;;;;5068714;28;20047;-79
2024/03/13 12:17:20;;;;;;;1.90;1.58;;;;;;;;;;5090916;28;20115;-78
2024/03/13 12:19:47;;;;;;;3.38;1.70;;;;;;;;;;5078745;27;20127;-79
2024/03/13 12:22:13;;;;;;;2.17;1.80;;;;;;;;;;5075017;28;20035;-79
2024/03/13 12:24:39;;;;;;;1.83;1.40;;;;;;;;;;5088800;28;20031;-79
2024/03/13 12:27:07;;;;;;;2.92;1.63;;;;;;;;;;5099310;27;20065;-78
2024/03/13 12:29:34;;;;;;;2.20;1.48;;;;;;;;;;5084586;28;20040;-78
2024/03/13 12:32:01;;;;;;;1.33;1.20;;;;;;;;;;5091841;28;20165;-78
2024/03/13 12:34:27;;;;;;;5.00;1.70;;;;;;;;;;5099875;27;20062;-79
2024/03/13 12:36:53;;;;;;;2.28;1.17;;;;;;;;;;5085917;27;20093;-79
2024/03/13 12:39:18;;;;;;;1.20;1.02;;;;;;;;;;5093728;27;20031;-78
2024/03/13 12:41:45;;;;;;;3.17;1.55;;;;;;;;;;5093759;27;20101;-78
2024/03/13 12:44:10;;;;;;;5.95;1.60;;;;;;;;;;5097996;27;20591;-79
2024/03/13 12:46:39;;;;;;;4.45;1.80;;;;;;;;;;5079522;28;20131;-79
2024/03/13 12:49:05;;;;;;;2.13;1.30;;;;;;;;;;5088484;27;20035;-79
2024/03/13 12:51:31;;;;;;;1.38;1.00;;;;;;;;;;5083906;27;20038;-79
2024/03/13 12:54:10;;;;;;;2.25;1.30;;;;;;;;;;5084354;28;21142;-79
2024/03/13 12:56:35;;;;;;;1.83;1.10;;;;;;;;;;5073883;28;20620;-79
2024/03/13 12:59:04;;;;;;;2.58;1.25;;;;;;;;;;5086343;27;20040;-78
2024/03/13 13:01:29;;;;;;;3.78;1.50;;;;;;;;;;5081830;28;20129;-80
2024/03/13 13:03:55;;;;;;;1.52;0.68;;;;;;;;;;5072687;28;20117;-79
2024/03/13 13:06:22;;;;;;;1.30;1.20;;;;;;;;;;5068383;28;20501;-78
2024/03/13 13:08:51;;;;;;;3.53;1.30;;;;;;;;;;5052332;27;20036;-78
2024/03/13 13:11:18;;;;;;;1.30;1.10;;;;;;;;;;5094256;27;20027;-79
2024/03/13 13:13:44;;;;;;;1.63;1.15;;;;;;;;;;5087099;28;20527;-79
2024/03/13 13:16:10;;;;;;;3.83;1.35;;;;;;;;;;5071993;28;20032;-79
2024/03/13 13:18:46;;;;;;;2.13;1.20;;;;;;;;;;5083034;27;20028;-79
2024/03/13 13:21:11;;;;;;;1.02;0.90;;;;;;;;;;5077976;28;20051;-79
2024/03/13 13:23:37;;;;;;;1.67;1.17;;;;;;;;;;5076935;28;20047;-79
2024/03/13 13:26:05;;;;;;;1.10;1.00;;;;;;;;;;5085803;27;20048;-79
2024/03/13 13:28:30;;;;;;;1.40;1.05;;;;;;;;;;5088838;28;20133;-78
2024/03/13 13:30:56;;;;;;;2.38;1.50;;;;;;;;;;5082244;28;20496;-80
2024/03/13 13:33:21;;;;;;;1.02;0.90;;;;;;;;;;5083918;28;20039;-79
2024/03/13 13:35:47;;;;;;;2.35;1.45;;;;;;;;;;5083290;28;20029;-79
2024/03/13 13:38:14;;;;;;;2.13;1.48;;;;;;;;;;5075816;27;20047;-78
2024/03/13 13:40:41;;;;;;;2.45;1.55;;;;;;;;;;5084057;27;20040;-79
2024/03/13 13:43:10;;;;;;;1.35;0.80;;;;;;;;;;5095983;27;20071;-79
2024/03/13 13:45:35;;;;;;;4.13;1.73;;;;;;;;;;5088417;27;20107;-79
2024/03/13 13:48:01;;;;;;;0.93;0.75;;;;;;;;;;5086672;28;20577;-78
2024/03/13 13:50:26;;;;;;;4.28;1.98;;;;;;;;;;5088115;27;20118;-79
2024/03/13 13:52:51;;;;;;;2.65;1.55;;;;;;;;;;5092938;27;20063;-79
2024/03/13 13:55:17;;;;;;;1.85;1.30;;;;;;;;;;5084705;27;20038;-79
2024/03/13 13:57:42;;;;;;;2.75;1.52;;;;;;;;;;5084979;27;20720;-79
2024/03/13 14:00:15;;;;;;;2.78;1.45;;;;;;;;;;5094510;27;20039;-79
2024/03/13 14:02:43;;;;;;;2.17;1.10;;;;;;;;;;5091083;27;20043;-79
2024/03/13 14:05:09;;;;;;;3.22;2.17;;;;;;;;;;5091919;27;20046;-79
2024/03/13 14:07:38;;;;;;;2.50;1.60;;;;;;;;;;5082694;28;20037;-79
2024/03/13 14:10:07;;;;;;;2.90;2.00;;;;;;;;;;5090883;27;20118;-79
2024/03/13 14:12:33;;;;;;;1.10;1.00;;;;;;;;;;5076542;27;20131;-79
2024/03/13 14:15:03;;;;;;;2.78;1.90;;;;;;;;;;5094216;28;20040;-79
2024/03/13 14:17:29;;;;;;;2.50;1.73;;;;;;;;;;5095162;28;20759;-79
2024/03/13 14:19:57;;;;;;;1.95;1.13;;;;;;;;;;5093021;27;20047;-79
2024/03/13 14:22:22;;;;;;;3.70;2.30;;;;;;;;;;5087571;27;20131;-79
2024/03/13 14:24:48;;;;;;;2.97;2.08;;;;;;;;;;5077589;28;20131;-78
2024/03/13 14:27:13;;;;;;;5.20;3.10;;;;;;;;;;5089231;28;20040;-79
2024/03/13 14:29:38;;;;;;;3.00;1.55;;;;;;;;;;5082926;27;20028;-79
2024/03/13 14:32:08;;;;;;;3.30;2.28;;;;;;;;;;5092708;27;20093;-78
2024/03/13 14:34:39;;;;;;;1.90;1.30;;;;;;;;;;5092847;27;20336;-79
2024/03/13 14:37:08;;;;;;;3.13;2.53;;;;;;;;;;5092442;27;20031;-79
2024/03/13 14:39:33;;;;;;;4.65;2.70;;;;;;;;;;5077234;28;20466;-78
2024/03/13 14:41:59;;;;;;;2.78;1.83;;;;;;;;;;5073915;28;20063;-78
2024/03/13 14:44:24;;;;;;;4.43;2.42;;;;;;;;;;5064197;28;20131;-79
2024/03/13 14:46:50;;;;;;;3.75;2.20;;;;;;;;;;5076728;28;20043;-78
2024/03/13 14:49:18;;;;;;;2.80;2.15;;;;;;;;;;5093257;28;20056;-80
2024/03/13 14:51:44;;;;;;;2.97;2.15;;;;;;;;;;5094203;27;20565;-79